createdAt,value
2022-10-05T07:36:50.942Z,62.71
2022-10-05T07:37:47.532Z,64.06
2022-10-05T07:38:47.301Z,63.95
2022-10-05T07:40:01.449Z,64.18
2022-10-05T07:40:47.323Z,63.85
2022-10-05T07:41:47.462Z,63.37
2022-10-05T07:42:51.712Z,64.56
2022-10-05T07:44:03.771Z,66.35
2022-10-05T07:44:47.294Z,64.46
2022-10-05T07:45:47.369Z,63.85
2022-10-05T07:46:47.569Z,63.69
2022-10-05T07:47:47.194Z,61.58
2022-10-05T07:48:46.500Z,59.23
2022-10-05T07:49:47.119Z,58.09
2022-10-05T07:50:46.481Z,56.25
2022-10-05T07:51:48.172Z,56.63
2022-10-05T07:52:46.972Z,54.99
2022-10-05T07:53:47.212Z,55.26
2022-10-05T07:54:46.452Z,53.65
2022-10-05T07:55:47.166Z,55.92
2022-10-05T07:56:46.777Z,55.49
2022-10-05T07:57:47.684Z,57.03
2022-10-05T07:58:47.201Z,55.26
2022-10-05T07:59:46.443Z,53.98
2022-10-05T08:00:47.814Z,52.47
2022-10-05T08:01:47.160Z,50.21
2022-10-05T08:02:46.400Z,50.38
2022-10-05T08:03:47.642Z,50.54
2022-10-05T08:04:48.002Z,47.20
2022-10-05T08:05:47.213Z,48.25
2022-10-05T08:06:46.612Z,48.91
2022-10-05T08:07:47.301Z,45.76
2022-10-05T08:08:46.292Z,47.06
2022-10-05T08:09:47.651Z,45.66
2022-10-05T08:10:46.971Z,46.64
2022-10-05T08:11:46.510Z,46.83
2022-10-05T08:12:46.942Z,48.05
2022-10-05T08:13:47.072Z,47.91
2022-10-05T08:14:47.073Z,47.76
2022-10-05T08:15:47.106Z,47.05
2022-10-05T08:16:47.062Z,47.45
2022-10-05T08:17:46.203Z,50.43
2022-10-05T08:18:47.012Z,52.09
2022-10-05T08:19:47.072Z,52.11
2022-10-05T08:20:46.174Z,53.75
2022-10-05T08:21:47.098Z,51.79
2022-10-05T08:22:47.011Z,51.06
2022-10-05T08:23:46.821Z,49.95
2022-10-05T08:24:46.942Z,52.14
2022-10-05T08:25:46.912Z,51.29
2022-10-05T08:26:46.923Z,50.46
2022-10-05T08:27:46.099Z,49.96
2022-10-05T08:28:47.641Z,51.74
2022-10-05T08:29:46.821Z,51.59
2022-10-05T08:30:46.102Z,54.35
2022-10-05T08:31:48.144Z,54.88
2022-10-05T08:32:46.660Z,57.64
2022-10-05T08:33:46.872Z,58.27
2022-10-05T08:34:46.065Z,59.54
2022-10-05T08:35:46.845Z,61.03
2022-10-05T08:36:49.243Z,61.52
2022-10-05T08:37:47.783Z,63.70
2022-10-05T08:38:45.975Z,63.17
2022-10-05T08:39:46.772Z,62.93
2022-10-05T08:40:46.743Z,62.90
2022-10-05T08:41:47.028Z,60.19
2022-10-05T08:42:45.943Z,60.72
2022-10-05T08:43:47.312Z,58.85
2022-10-05T08:44:46.653Z,60.55
2022-10-05T08:45:45.959Z,62.21
2022-10-05T08:46:47.761Z,58.87
2022-10-05T08:47:46.482Z,57.76
2022-10-05T08:48:45.872Z,57.71
2022-10-05T08:49:46.514Z,57.96
2022-10-05T08:50:45.831Z,56.52
2022-10-05T08:51:47.418Z,55.54
2022-10-05T08:52:46.692Z,53.47
2022-10-05T08:53:46.473Z,50.21
2022-10-05T08:54:46.613Z,49.91
2022-10-05T08:55:46.491Z,50.31
2022-10-05T08:57:08.083Z,51.01
2022-10-05T08:57:47.774Z,52.22
2022-10-05T08:58:46.623Z,52.62
2022-10-05T08:59:45.762Z,51.31
2022-10-05T09:00:46.596Z,50.26
2022-10-05T09:01:46.088Z,50.26
2022-10-05T09:02:46.602Z,49.84
2022-10-05T09:03:45.705Z,49.51
2022-10-05T09:04:46.401Z,50.44
2022-10-05T09:05:45.681Z,50.56
2022-10-05T09:06:46.343Z,53.07
2022-10-05T09:07:45.661Z,54.40
2022-10-05T09:08:47.273Z,54.43
2022-10-05T09:09:46.482Z,55.69
2022-10-05T09:10:45.953Z,57.50
2022-10-05T09:11:47.498Z,56.44
2022-10-05T09:12:46.734Z,54.96
2022-10-05T09:13:45.591Z,54.96
2022-10-05T09:15:01.307Z,55.61
2022-10-05T09:15:46.315Z,54.28
2022-10-05T09:16:45.553Z,55.21
2022-10-05T09:17:47.192Z,55.61
2022-10-05T09:18:45.541Z,54.25
2022-10-05T09:19:46.141Z,52.80
2022-10-05T09:20:46.373Z,50.84
2022-10-05T09:21:46.475Z,49.21
2022-10-05T09:22:46.412Z,50.31
2022-10-05T09:23:46.142Z,48.57
2022-10-05T09:24:48.659Z,47.14
2022-10-05T09:25:46.173Z,47.38
2022-10-05T09:26:46.382Z,47.46
2022-10-05T09:27:46.133Z,48.99
2022-10-05T09:28:45.453Z,48.16
2022-10-05T09:29:46.153Z,47.02
2022-10-05T09:30:45.446Z,45.67
2022-10-05T09:31:47.123Z,46.25
2022-10-05T09:32:46.114Z,45.21
2022-10-05T09:33:45.433Z,44.41
2022-10-05T09:34:46.082Z,44.83
2022-10-05T09:35:45.353Z,46.00
2022-10-05T09:36:46.721Z,46.35
2022-10-05T09:37:45.521Z,46.07
2022-10-05T09:38:47.061Z,45.97
2022-10-05T09:39:46.161Z,46.33
2022-10-05T09:40:46.040Z,45.48
2022-10-05T09:41:45.669Z,44.09
2022-10-05T09:42:46.796Z,43.41
2022-10-05T09:43:46.153Z,44.93
2022-10-05T09:44:45.280Z,45.39
2022-10-05T09:45:46.704Z,44.92
2022-10-05T09:46:45.493Z,47.46
2022-10-05T09:47:45.234Z,47.06
2022-10-05T09:48:46.692Z,48.43
2022-10-05T09:49:45.852Z,50.48
2022-10-05T09:50:45.213Z,50.99
2022-10-05T09:51:46.131Z,50.96
2022-10-05T09:52:45.982Z,51.11
2022-10-05T09:53:45.852Z,52.22
2022-10-05T09:54:45.942Z,52.82
2022-10-05T09:55:46.021Z,53.05
2022-10-05T09:56:46.334Z,53.57
2022-10-05T09:57:48.138Z,53.90
2022-10-05T09:58:45.963Z,56.22
2022-10-05T09:59:45.133Z,57.32
2022-10-05T10:00:51.486Z,56.82
2022-10-05T10:01:47.877Z,57.23
2022-10-05T10:02:45.808Z,58.39
2022-10-05T10:03:45.873Z,61.33
2022-10-05T10:04:45.692Z,61.17
2022-10-05T10:05:45.852Z,59.14
2022-10-05T10:06:45.022Z,55.81
2022-10-05T10:07:45.932Z,53.72
2022-10-05T10:08:45.015Z,51.64
2022-10-05T10:09:47.054Z,49.96
2022-10-05T10:10:46.002Z,49.87
2022-10-05T10:11:45.341Z,50.09
2022-10-05T10:12:46.823Z,52.89
2022-10-05T10:13:45.832Z,54.25
2022-10-05T10:14:45.743Z,55.48
2022-10-05T10:15:45.774Z,54.45
2022-10-05T10:16:44.934Z,53.92
2022-10-05T10:17:45.574Z,53.42
2022-10-05T10:18:45.682Z,53.92
2022-10-05T10:19:45.013Z,54.02
2022-10-05T10:20:46.254Z,53.17
2022-10-05T10:21:45.838Z,53.19
2022-10-05T10:22:44.881Z,50.89
2022-10-05T10:23:46.212Z,51.17
2022-10-05T10:24:45.071Z,50.16
2022-10-05T10:25:44.892Z,51.37
2022-10-05T10:26:46.231Z,51.02
2022-10-05T10:27:49.141Z,49.72
2022-10-05T10:28:46.622Z,49.69
2022-10-05T10:29:44.834Z,52.17
2022-10-05T10:30:45.748Z,52.57
2022-10-05T10:31:45.296Z,52.59
2022-10-05T10:32:45.553Z,53.77
2022-10-05T10:33:45.553Z,54.85
2022-10-05T10:34:45.353Z,54.33
2022-10-05T10:35:45.543Z,53.75
2022-10-05T10:36:44.723Z,54.45
2022-10-05T10:37:45.632Z,55.51
2022-10-05T10:38:44.701Z,56.11
2022-10-05T10:39:46.182Z,56.21
2022-10-05T10:40:45.142Z,56.21
2022-10-05T10:41:45.522Z,56.51
2022-10-05T10:42:44.642Z,57.39
2022-10-05T10:43:45.562Z,55.93
2022-10-05T10:44:44.646Z,55.23
2022-10-05T10:45:45.461Z,55.16
2022-10-05T10:46:44.667Z,56.13
2022-10-05T10:47:46.313Z,55.23
2022-10-05T10:48:45.088Z,55.48
2022-10-05T10:49:45.281Z,56.31
2022-10-05T10:50:44.582Z,56.92
2022-10-05T10:51:45.283Z,56.51
2022-10-05T10:52:45.361Z,57.75
2022-10-05T10:53:44.562Z,57.48
2022-10-05T10:54:45.362Z,58.81
2022-10-05T10:55:44.572Z,58.91
2022-10-05T10:56:46.587Z,58.71
2022-10-05T10:57:45.632Z,59.04
2022-10-05T10:58:45.483Z,59.24
2022-10-05T10:59:45.375Z,59.44
2022-10-05T11:00:45.406Z,59.22
2022-10-05T11:01:44.674Z,59.07
2022-10-05T11:02:44.542Z,60.08
2022-10-05T11:03:45.643Z,60.68
2022-10-05T11:04:45.084Z,61.24
2022-10-05T11:05:48.683Z,61.32
2022-10-05T11:06:45.093Z,61.29
2022-10-05T11:07:45.252Z,60.65
2022-10-05T11:08:44.382Z,59.52
2022-10-05T11:09:45.183Z,58.68
2022-10-05T11:10:44.381Z,58.83
2022-10-05T11:11:45.656Z,57.70
2022-10-05T11:12:44.533Z,56.44
2022-10-05T11:13:44.381Z,57.65
2022-10-05T11:14:45.680Z,57.24
2022-10-05T11:15:44.778Z,57.72
2022-10-05T11:16:44.294Z,57.22
2022-10-05T11:17:44.981Z,57.52
2022-10-05T11:18:44.294Z,56.62
2022-10-05T11:20:03.161Z,56.71
2022-10-05T11:20:45.283Z,56.54
2022-10-05T11:21:44.282Z,56.44
2022-10-05T11:22:45.083Z,58.03
2022-10-05T11:23:44.881Z,58.74
2022-10-05T11:24:44.211Z,58.31
2022-10-05T11:25:45.062Z,59.01
2022-10-05T11:26:45.043Z,58.78
2022-10-05T11:27:44.873Z,58.41
2022-10-05T11:28:44.382Z,58.48
2022-10-05T11:29:44.893Z,58.98
2022-10-05T11:30:47.501Z,58.88
2022-10-05T11:31:44.214Z,58.75
2022-10-05T11:32:44.711Z,58.33
2022-10-05T11:33:44.991Z,57.72
2022-10-05T11:34:44.721Z,57.42
2022-10-05T11:35:44.882Z,56.71
2022-10-05T11:36:44.694Z,56.89
2022-10-05T11:37:44.961Z,57.59
2022-10-05T11:38:44.711Z,56.29
2022-10-05T11:39:44.956Z,57.12
2022-10-05T11:40:44.798Z,56.51
2022-10-05T11:41:45.208Z,56.92
2022-10-05T11:42:44.833Z,57.42
2022-10-05T11:43:44.108Z,57.29
2022-10-05T11:44:46.224Z,56.51
2022-10-05T11:45:46.022Z,57.29
2022-10-05T11:46:44.013Z,56.38
2022-10-05T11:47:43.981Z,56.79
2022-10-05T11:48:45.261Z,56.19
2022-10-05T11:49:44.682Z,57.02
2022-10-05T11:50:44.770Z,57.15
2022-10-05T11:51:44.551Z,57.42
2022-10-05T11:52:45.841Z,57.22
2022-10-05T11:53:44.572Z,56.66
2022-10-05T11:55:09.146Z,56.66
2022-10-05T11:55:44.691Z,55.73
2022-10-05T11:56:44.833Z,55.33
2022-10-05T11:57:44.742Z,54.93
2022-10-05T11:58:44.691Z,55.10
2022-10-05T11:59:44.542Z,55.63
2022-10-05T12:00:43.863Z,55.33
2022-10-05T12:01:45.342Z,55.53
2022-10-05T12:02:45.301Z,55.88
2022-10-05T12:03:43.910Z,54.88
2022-10-05T12:04:43.783Z,54.97
2022-10-05T12:05:45.351Z,54.15
2022-10-05T12:06:44.234Z,53.85
2022-10-05T12:07:43.862Z,54.25
2022-10-05T12:08:45.112Z,53.05
2022-10-05T12:09:45.321Z,53.55
2022-10-05T12:10:44.473Z,52.82
2022-10-05T12:11:44.671Z,53.55
2022-10-05T12:12:43.731Z,53.95
2022-10-05T12:13:44.613Z,53.95
2022-10-05T12:14:43.672Z,53.14
2022-10-05T12:15:44.734Z,54.15
2022-10-05T12:16:45.342Z,53.75
2022-10-05T12:17:43.663Z,53.52
2022-10-05T12:18:45.174Z,54.07
2022-10-05T12:19:44.362Z,54.15
2022-10-05T12:20:43.603Z,53.75
2022-10-05T12:21:44.284Z,52.94
2022-10-05T12:22:44.431Z,53.45
2022-10-05T12:23:44.292Z,53.77
2022-10-05T12:24:44.354Z,53.87
2022-10-05T12:25:44.494Z,53.67
2022-10-05T12:26:44.341Z,54.58
2022-10-05T12:27:44.233Z,53.34
2022-10-05T12:28:43.524Z,53.34
2022-10-05T12:29:44.250Z,52.75
2022-10-05T12:30:44.322Z,53.45
2022-10-05T12:31:43.581Z,53.75
2022-10-05T12:32:44.087Z,53.27
2022-10-05T12:33:44.261Z,53.67
2022-10-05T12:34:44.239Z,53.77
2022-10-05T12:35:48.294Z,53.47
2022-10-05T12:37:03.642Z,53.45
2022-10-05T12:37:44.483Z,53.37
2022-10-05T12:38:43.991Z,53.77
2022-10-05T12:39:43.410Z,54.38
2022-10-05T12:40:44.141Z,54.30
2022-10-05T12:41:44.163Z,54.53
2022-10-05T12:42:44.293Z,54.60
2022-10-05T12:43:44.353Z,54.50
2022-10-05T12:44:44.061Z,55.43
2022-10-05T12:45:44.365Z,55.13
2022-10-05T12:46:44.085Z,55.23
2022-10-05T12:47:44.102Z,55.30
2022-10-05T12:48:44.273Z,55.51
2022-10-05T12:49:43.901Z,55.10
2022-10-05T12:50:44.113Z,55.63
2022-10-05T12:51:43.921Z,55.73
2022-10-05T12:52:44.271Z,55.83
2022-10-05T12:53:43.994Z,56.13
2022-10-05T12:54:44.094Z,55.30
2022-10-05T12:55:43.984Z,55.20
2022-10-05T12:56:44.062Z,55.30
2022-10-05T12:57:43.994Z,55.60
2022-10-05T12:58:44.062Z,55.80
2022-10-05T12:59:43.983Z,55.51
2022-10-05T13:00:44.097Z,56.38
2022-10-05T13:01:43.966Z,55.28
2022-10-05T13:02:43.803Z,55.18
2022-10-05T13:03:44.091Z,55.08
2022-10-05T13:04:43.762Z,55.18
2022-10-05T13:05:44.008Z,55.38
2022-10-05T13:06:43.774Z,55.55
2022-10-05T13:07:43.892Z,55.35
2022-10-05T13:08:43.781Z,55.18
2022-10-05T13:09:43.997Z,55.47
2022-10-05T13:10:43.093Z,55.80
2022-10-05T13:11:43.953Z,55.80
2022-10-05T13:12:43.831Z,55.40
2022-10-05T13:13:43.851Z,55.71
2022-10-05T13:14:43.891Z,56.01
2022-10-05T13:15:43.821Z,55.80
2022-10-05T13:16:43.866Z,55.91
2022-10-05T13:17:43.693Z,55.80
2022-10-05T13:18:43.741Z,56.58
2022-10-05T13:19:43.651Z,56.08
2022-10-05T13:20:43.801Z,55.30
2022-10-05T13:21:43.692Z,55.98
2022-10-05T13:22:43.823Z,55.68
2022-10-05T13:23:43.716Z,55.71
2022-10-05T13:24:42.910Z,58.18
2022-10-05T13:25:43.595Z,56.05
2022-10-05T13:26:43.818Z,55.35
2022-10-05T13:27:43.613Z,55.13
2022-10-05T13:28:42.922Z,55.13
2022-10-05T13:29:43.601Z,55.52
2022-10-05T13:30:43.685Z,55.73
2022-10-05T13:31:43.838Z,55.52
2022-10-05T13:32:43.515Z,58.00
2022-10-05T13:33:43.791Z,54.60
2022-10-05T13:34:43.421Z,54.60
2022-10-05T13:35:43.581Z,54.50
2022-10-05T13:36:44.584Z,54.90
2022-10-05T13:37:44.682Z,55.60
2022-10-05T13:38:43.502Z,54.93
2022-10-05T13:39:43.643Z,54.82
2022-10-05T13:40:44.443Z,55.55
2022-10-05T13:41:42.765Z,56.26
2022-10-05T13:42:43.453Z,55.55
2022-10-05T13:43:43.701Z,55.65
2022-10-05T13:44:43.493Z,56.15
2022-10-05T13:45:43.752Z,56.52
2022-10-05T13:46:43.422Z,57.63
2022-10-05T13:47:43.282Z,55.93
2022-10-05T13:48:42.667Z,56.56
2022-10-05T13:49:43.421Z,56.96
2022-10-05T13:50:42.656Z,56.38
2022-10-05T13:51:43.513Z,56.58
2022-10-05T13:52:43.481Z,56.65
2022-10-05T13:53:43.296Z,57.96
2022-10-05T13:54:43.434Z,56.85
2022-10-05T13:55:43.410Z,56.76
2022-10-05T13:56:43.374Z,56.63
2022-10-05T13:57:43.271Z,56.13
2022-10-05T13:58:43.413Z,56.45
2022-10-05T13:59:43.461Z,57.86
2022-10-05T14:00:43.511Z,56.76
2022-10-05T14:01:42.583Z,56.96
2022-10-05T14:02:43.123Z,57.66
2022-10-05T14:03:43.493Z,57.46
2022-10-05T14:04:43.523Z,57.59
2022-10-05T14:05:43.262Z,57.89
2022-10-05T14:06:43.323Z,58.18
2022-10-05T14:07:43.294Z,58.62
2022-10-05T14:08:44.132Z,58.89
2022-10-05T14:09:43.422Z,58.99
2022-10-05T14:10:43.161Z,59.22
2022-10-05T14:11:44.314Z,58.89
2022-10-05T14:12:43.261Z,58.66
2022-10-05T14:13:43.273Z,59.16
2022-10-05T14:14:42.383Z,59.36
2022-10-05T14:15:44.402Z,59.49
2022-10-05T14:16:42.502Z,59.49
2022-10-05T14:17:42.371Z,59.69
2022-10-05T14:18:43.876Z,59.89
2022-10-05T14:19:42.651Z,60.19
2022-10-05T14:20:43.152Z,60.19
2022-10-05T14:21:42.951Z,60.10
2022-10-05T14:22:42.333Z,60.10
2022-10-05T14:23:42.381Z,60.66
2022-10-05T14:24:45.020Z,60.36
2022-10-05T14:25:43.923Z,60.29
2022-10-05T14:26:43.152Z,61.02
2022-10-05T14:27:42.251Z,61.13
2022-10-05T14:28:43.187Z,61.02
2022-10-05T14:29:42.283Z,60.72
2022-10-05T14:30:48.154Z,61.43
2022-10-05T14:31:43.711Z,61.22
2022-10-05T14:32:42.201Z,61.55
2022-10-05T14:33:43.751Z,61.76
2022-10-05T14:34:42.563Z,61.86
2022-10-05T14:35:42.162Z,61.76
2022-10-05T14:36:43.908Z,61.35
2022-10-05T14:37:42.961Z,61.76
2022-10-05T14:38:42.802Z,61.96
2022-10-05T14:39:42.121Z,62.06
2022-10-05T14:40:43.800Z,62.06
2022-10-05T14:41:43.681Z,62.56
2022-10-05T14:42:47.100Z,62.36
2022-10-05T14:43:42.941Z,62.56
2022-10-05T14:44:42.852Z,62.96
2022-10-05T14:45:42.126Z,63.09
2022-10-05T14:46:42.882Z,63.49
2022-10-05T14:47:42.653Z,63.90
2022-10-05T14:48:43.121Z,63.59
2022-10-05T14:49:42.694Z,63.29
2022-10-05T14:50:42.802Z,63.36
2022-10-05T14:51:42.843Z,63.56
2022-10-05T14:52:41.982Z,63.56
2022-10-05T14:53:43.391Z,63.56
2022-10-05T14:54:42.343Z,63.67
2022-10-05T14:55:41.971Z,64.20
2022-10-05T14:56:42.861Z,63.96
2022-10-05T14:57:41.941Z,64.40
2022-10-05T14:58:42.741Z,64.70
2022-10-05T14:59:41.903Z,63.90
2022-10-05T15:00:45.621Z,64.80
2022-10-05T15:01:41.934Z,65.41
2022-10-05T15:02:42.613Z,65.44
2022-10-05T15:03:42.660Z,65.44
2022-10-05T15:04:42.482Z,65.33
2022-10-05T15:05:42.653Z,65.53
2022-10-05T15:06:41.833Z,65.03
2022-10-05T15:07:43.412Z,64.93
2022-10-05T15:08:42.576Z,64.73
2022-10-05T15:09:41.821Z,65.56
2022-10-05T15:10:42.542Z,65.97
2022-10-05T15:11:41.763Z,65.36
2022-10-05T15:12:42.582Z,66.03
2022-10-05T15:13:41.768Z,65.53
2022-10-05T15:14:41.821Z,66.37
2022-10-05T15:15:42.554Z,66.27
2022-10-05T15:16:42.711Z,66.47
2022-10-05T15:17:41.710Z,66.77
2022-10-05T15:18:43.381Z,66.77
2022-10-05T15:19:42.502Z,66.77
2022-10-05T15:20:42.542Z,66.47
2022-10-05T15:21:42.477Z,66.87
2022-10-05T15:22:42.461Z,67.38
2022-10-05T15:23:42.471Z,66.97
2022-10-05T15:24:43.685Z,67.18
2022-10-05T15:25:42.601Z,67.41
2022-10-05T15:26:42.496Z,67.41
2022-10-05T15:27:42.344Z,67.71
2022-10-05T15:28:42.839Z,68.11
2022-10-05T15:29:41.661Z,68.15
2022-10-05T15:30:42.532Z,68.65
2022-10-05T15:31:42.442Z,68.44
2022-10-05T15:32:41.600Z,68.75
2022-10-05T15:33:43.673Z,68.44
2022-10-05T15:34:42.601Z,68.15
2022-10-05T15:35:41.501Z,68.85
2022-10-05T15:36:42.273Z,69.18
2022-10-05T15:37:42.451Z,69.49
2022-10-05T15:38:42.211Z,69.29
2022-10-05T15:39:42.301Z,69.69
2022-10-05T15:40:42.175Z,69.69
2022-10-05T15:41:41.472Z,69.18
2022-10-05T15:42:42.381Z,69.72
2022-10-05T15:43:41.431Z,70.32
2022-10-05T15:44:42.782Z,70.53
2022-10-05T15:45:41.766Z,70.32
2022-10-05T15:46:41.403Z,69.92
2022-10-05T15:47:42.764Z,70.53
2022-10-05T15:48:41.591Z,70.83
2022-10-05T15:49:42.005Z,70.83
2022-10-05T15:50:43.195Z,70.83
2022-10-05T15:51:41.354Z,70.42
2022-10-05T15:52:42.341Z,71.13
2022-10-05T15:53:41.421Z,71.17
2022-10-05T15:54:42.101Z,70.97
2022-10-05T15:55:41.306Z,70.97
2022-10-05T15:56:42.262Z,71.26
2022-10-05T15:57:41.293Z,71.57
2022-10-05T15:58:42.193Z,71.97
2022-10-05T15:59:43.192Z,71.97
2022-10-05T16:00:42.071Z,72.00
2022-10-05T16:01:41.599Z,71.70
2022-10-05T16:02:41.915Z,71.60
2022-10-05T16:03:42.051Z,72.11
2022-10-05T16:04:41.853Z,72.31
2022-10-05T16:05:42.252Z,72.71
2022-10-05T16:06:41.930Z,72.00
2022-10-05T16:07:41.190Z,72.81
2022-10-05T16:08:42.875Z,73.15
2022-10-05T16:09:42.681Z,73.35
2022-10-05T16:10:41.831Z,73.65
2022-10-05T16:11:42.102Z,73.45
2022-10-05T16:12:41.923Z,73.75
2022-10-05T16:13:41.321Z,73.55
2022-10-05T16:14:42.022Z,73.15
2022-10-05T16:15:41.094Z,73.75
2022-10-05T16:16:42.990Z,73.45
2022-10-05T16:17:43.230Z,73.99
2022-10-05T16:18:42.261Z,73.89
2022-10-05T16:19:41.762Z,74.19
2022-10-05T16:20:41.913Z,73.38
2022-10-05T16:21:41.671Z,74.40
2022-10-05T16:22:43.586Z,74.80
2022-10-05T16:23:41.704Z,74.84
2022-10-05T16:24:41.863Z,74.13
2022-10-05T16:25:41.733Z,73.99
2022-10-05T16:26:40.982Z,75.24
2022-10-05T16:27:41.771Z,75.54
2022-10-05T16:28:41.017Z,75.84
2022-10-05T16:29:41.652Z,76.08
2022-10-05T16:30:40.984Z,75.37
2022-10-05T16:31:41.691Z,76.28
2022-10-05T16:32:41.531Z,76.39
2022-10-05T16:33:46.580Z,76.59
2022-10-05T16:34:41.671Z,76.79
2022-10-05T16:35:40.941Z,76.99
2022-10-05T16:36:41.563Z,76.69
2022-10-05T16:37:41.641Z,75.88
2022-10-05T16:38:41.492Z,76.39
2022-10-05T16:39:41.733Z,75.57
2022-10-05T16:40:41.554Z,75.68
2022-10-05T16:41:41.752Z,75.88
2022-10-05T16:42:41.551Z,75.48
2022-10-05T16:43:41.561Z,75.48
2022-10-05T16:44:41.592Z,75.68
2022-10-05T16:45:45.778Z,75.27
2022-10-05T16:46:41.714Z,76.48
2022-10-05T16:47:41.361Z,75.68
2022-10-05T16:48:41.511Z,76.39
2022-10-05T16:49:41.392Z,76.48
2022-10-05T16:50:41.582Z,76.18
2022-10-05T16:51:41.333Z,76.28
2022-10-05T16:52:40.732Z,76.42
2022-10-05T16:53:41.462Z,76.32
2022-10-05T16:54:46.878Z,76.52
2022-10-05T16:55:41.371Z,76.82
2022-10-05T16:56:41.551Z,77.97
2022-10-05T16:57:41.489Z,78.17
2022-10-05T16:58:41.562Z,78.17
2022-10-05T16:59:41.383Z,78.17
2022-10-05T17:00:40.612Z,77.97
2022-10-05T17:01:41.580Z,77.57
2022-10-05T17:02:40.719Z,78.08
2022-10-05T17:03:41.476Z,78.28
2022-10-05T17:04:40.572Z,78.82
2022-10-05T17:05:41.321Z,79.02
2022-10-05T17:06:41.242Z,79.53
2022-10-05T17:07:40.533Z,79.73
2022-10-05T17:08:42.230Z,80.58
2022-10-05T17:09:41.391Z,80.58
2022-10-05T17:10:41.243Z,79.87
2022-10-05T17:11:40.513Z,79.97
2022-10-05T17:12:41.850Z,80.78
2022-10-05T17:13:41.366Z,79.77
2022-10-05T17:14:41.302Z,80.47
2022-10-05T17:15:41.407Z,79.97
2022-10-05T17:16:41.241Z,80.47
2022-10-05T17:17:41.081Z,80.07
2022-10-05T17:18:42.241Z,80.58
2022-10-05T17:19:41.222Z,80.07
2022-10-05T17:20:42.793Z,80.27
2022-10-05T17:21:41.024Z,80.47
2022-10-05T17:22:41.282Z,80.68
2022-10-05T17:23:41.081Z,80.47
2022-10-05T17:24:40.352Z,79.87
2022-10-05T17:25:40.403Z,79.46
2022-10-05T17:26:41.370Z,80.47
2022-10-05T17:27:40.334Z,80.18
2022-10-05T17:28:41.210Z,80.47
2022-10-05T17:29:41.085Z,81.02
2022-10-05T17:30:41.207Z,80.72
2022-10-05T17:31:41.098Z,81.02
2022-10-05T17:32:41.854Z,80.82
2022-10-05T17:33:41.064Z,81.23
2022-10-05T17:34:40.324Z,80.21
2022-10-05T17:35:41.058Z,81.52
2022-10-05T17:36:40.815Z,81.73
2022-10-05T17:37:41.065Z,81.02
2022-10-05T17:38:40.884Z,81.43
2022-10-05T17:39:40.274Z,82.03
2022-10-05T17:40:40.994Z,82.24
2022-10-05T17:41:41.975Z,81.52
2022-10-05T17:42:40.884Z,81.83
2022-10-05T17:43:40.175Z,82.07
2022-10-05T17:44:40.124Z,82.58
2022-10-05T17:45:42.004Z,81.26
2022-10-05T17:46:41.300Z,81.46
2022-10-05T17:47:45.378Z,81.02
2022-10-05T17:48:40.915Z,81.23
2022-10-05T17:49:41.776Z,81.93
2022-10-05T17:50:40.085Z,82.24
2022-10-05T17:51:41.974Z,82.03
2022-10-05T17:52:41.785Z,81.83
2022-10-05T17:53:41.049Z,81.52
2022-10-05T17:54:42.104Z,81.43
2022-10-05T17:55:41.336Z,82.07
2022-10-05T17:56:41.544Z,82.58
2022-10-05T17:57:41.146Z,82.07
2022-10-05T17:58:40.604Z,81.87
2022-10-05T17:59:40.554Z,82.38
2022-10-05T18:00:40.215Z,82.89
2022-10-05T18:01:41.183Z,82.78
2022-10-05T18:02:41.113Z,82.38
2022-10-05T18:03:40.986Z,82.89
2022-10-05T18:04:41.165Z,82.28
2022-10-05T18:05:40.404Z,82.98
2022-10-05T18:06:41.233Z,83.43
2022-10-05T18:07:40.266Z,83.33
2022-10-05T18:08:40.588Z,83.53
2022-10-05T18:09:41.049Z,83.33
2022-10-05T18:10:41.847Z,83.23
2022-10-05T18:11:41.115Z,83.63
2022-10-05T18:12:40.178Z,84.04
2022-10-05T18:13:42.366Z,84.04
2022-10-05T18:14:41.689Z,83.43
2022-10-05T18:15:41.134Z,83.83
2022-10-05T18:16:40.768Z,84.04
2022-10-05T18:17:40.768Z,83.83
2022-10-05T18:18:40.068Z,83.12
2022-10-05T18:19:41.608Z,83.23
2022-10-05T18:20:41.988Z,83.03
2022-10-05T18:21:40.147Z,83.12
2022-10-05T18:22:41.267Z,83.63
2022-10-05T18:23:41.608Z,83.83
2022-10-05T18:24:40.888Z,84.14
2022-10-05T18:25:40.148Z,84.34
2022-10-05T18:26:41.227Z,84.34
2022-10-05T18:27:40.829Z,84.75
2022-10-05T18:28:40.091Z,84.78
2022-10-05T18:29:41.127Z,84.28
2022-10-05T18:30:41.234Z,84.18
2022-10-05T18:31:41.291Z,84.04
2022-10-05T18:32:40.669Z,84.14
2022-10-05T18:33:40.866Z,84.69
2022-10-05T18:34:41.628Z,84.18
2022-10-05T18:35:39.931Z,84.48
2022-10-05T18:36:41.230Z,84.89
2022-10-05T18:37:41.429Z,85.19
2022-10-05T18:38:41.247Z,85.09
2022-10-05T18:39:40.787Z,84.48
2022-10-05T18:40:40.709Z,84.69
2022-10-05T18:41:40.868Z,84.38
2022-10-05T18:42:40.607Z,84.08
2022-10-05T18:43:40.827Z,83.98
2022-10-05T18:44:40.692Z,83.67
2022-10-05T18:45:40.728Z,84.38
2022-10-05T18:46:40.656Z,84.18
2022-10-05T18:47:42.247Z,84.58
2022-10-05T18:48:40.849Z,84.48
2022-10-05T18:49:41.387Z,84.48
2022-10-05T18:50:40.587Z,84.18
2022-10-05T18:51:40.788Z,83.87
2022-10-05T18:52:40.806Z,83.98
2022-10-05T18:53:39.767Z,84.69
2022-10-05T18:54:40.729Z,84.78
2022-10-05T18:55:40.428Z,84.78
2022-10-05T18:56:40.568Z,84.72
2022-10-05T18:57:40.507Z,84.42
2022-10-05T18:58:40.647Z,84.32
2022-10-05T18:59:40.470Z,84.83
2022-10-05T19:00:40.588Z,85.03
2022-10-05T19:01:40.543Z,85.33
2022-10-05T19:02:42.296Z,85.24
2022-10-05T19:03:40.528Z,85.13
2022-10-05T19:04:40.288Z,85.24
2022-10-05T19:05:47.867Z,85.64
2022-10-05T19:06:42.127Z,85.33
2022-10-05T19:07:40.448Z,85.44
2022-10-05T19:08:42.170Z,85.13
2022-10-05T19:09:40.472Z,85.44
2022-10-05T19:10:40.451Z,85.44
2022-10-05T19:11:40.428Z,85.74
2022-10-05T19:12:41.658Z,85.88
2022-10-05T19:13:42.101Z,85.58
2022-10-05T19:14:41.270Z,85.78
2022-10-05T19:15:40.447Z,85.58
2022-10-05T19:16:40.267Z,85.47
2022-10-05T19:17:40.189Z,85.78
2022-10-05T19:18:39.448Z,85.38
2022-10-05T19:19:41.831Z,85.27
2022-10-05T19:20:40.767Z,84.97
2022-10-05T19:21:40.174Z,85.07
2022-10-05T19:22:40.268Z,85.58
2022-10-05T19:23:40.191Z,85.68
2022-10-05T19:24:40.287Z,86.08
2022-10-05T19:25:40.270Z,86.08
2022-10-05T19:26:40.168Z,85.47
2022-10-05T19:27:40.067Z,85.17
2022-10-05T19:28:40.195Z,85.38
2022-10-05T19:29:40.188Z,85.58
2022-10-05T19:30:41.951Z,85.27
2022-10-05T19:31:40.272Z,85.07
2022-10-05T19:32:40.209Z,85.07
2022-10-05T19:33:39.308Z,84.97
2022-10-05T19:34:40.027Z,84.97
2022-10-05T19:35:40.268Z,85.38
2022-10-05T19:36:39.918Z,85.38
2022-10-05T19:37:40.208Z,84.77
2022-10-05T19:38:40.069Z,85.38
2022-10-05T19:39:40.207Z,85.27
2022-10-05T19:40:40.891Z,85.17
2022-10-05T19:41:41.811Z,85.27
2022-10-05T19:42:40.568Z,85.07
2022-10-05T19:43:40.209Z,84.66
2022-10-05T19:44:39.887Z,85.38
2022-10-05T19:45:40.248Z,85.38
2022-10-05T19:46:40.103Z,84.77
2022-10-05T19:47:41.787Z,84.46
2022-10-05T19:48:40.688Z,83.81
2022-10-05T19:49:39.827Z,84.32
2022-10-05T19:50:39.900Z,84.42
2022-10-05T19:51:41.549Z,83.54
2022-10-05T19:52:44.228Z,83.75
2022-10-05T19:53:39.090Z,84.30
2022-10-05T19:54:40.287Z,84.60
2022-10-05T19:55:39.847Z,84.80
2022-10-05T19:56:39.975Z,84.40
2022-10-05T19:57:39.809Z,84.40
2022-10-05T19:58:41.851Z,85.11
2022-10-05T19:59:39.888Z,85.92
2022-10-05T20:00:39.868Z,85.72
2022-10-05T20:01:39.897Z,85.62
2022-10-05T20:02:42.045Z,85.72
2022-10-05T20:03:39.987Z,86.13
2022-10-05T20:04:39.788Z,85.86
2022-10-05T20:05:40.149Z,85.76
2022-10-05T20:06:40.227Z,85.96
2022-10-05T20:07:39.789Z,85.96
2022-10-05T20:08:38.928Z,86.27
2022-10-05T20:09:39.927Z,85.96
2022-10-05T20:10:39.711Z,86.07
2022-10-05T20:11:39.788Z,86.68
2022-10-05T20:12:39.668Z,87.18
2022-10-05T20:13:39.988Z,86.98
2022-10-05T20:14:39.749Z,86.88
2022-10-05T20:15:39.765Z,86.77
2022-10-05T20:16:41.622Z,87.02
2022-10-05T20:17:39.527Z,87.12
2022-10-05T20:18:39.711Z,87.02
2022-10-05T20:19:40.010Z,87.12
2022-10-05T20:20:39.674Z,87.84
2022-10-05T20:21:39.548Z,88.34
2022-10-05T20:22:39.647Z,88.34
2022-10-05T20:23:39.547Z,88.04
2022-10-05T20:24:39.726Z,87.73
2022-10-05T20:25:39.850Z,87.84
2022-10-05T20:26:39.627Z,87.53
2022-10-05T20:27:39.829Z,87.38
2022-10-05T20:28:39.659Z,87.93